This is the latest recevied weather packets stored in our database for station/object OE-11140. If no packets are shown the sender has not sent any weather packets the latest 10 day(s).
| Time | Temp. | Humidity | Pressure | Rain* | Wind** | Luminosity | Snow |
|---|---|---|---|---|---|---|---|
| 1787898916 | 20° C | 71% | 1011.9 hPa | 0 mm | - | 146 W/m² | - |
| 1787898316 | 19.44° C | 72% | 1012 hPa | 0 mm | - | 119 W/m² | - |
| 1787897488 | 19.44° C | 71% | 1012.2 hPa | 0 mm | - | 86 W/m² | - |
| 1787897115 | 18.89° C | 73% | 1012.3 hPa | 0 mm | - | 86 W/m² | - |
| 1787896515 | 19.44° C | 70% | 1012.2 hPa | 0 mm | - | 80 W/m² | - |
| 1787895688 | 18.33° C | 76% | 1012.4 hPa | 0 mm | - | 66 W/m² | - |
| 1787895316 | 18.33° C | 76% | 1012.5 hPa | 0 mm | - | 53 W/m² | - |
| 1787894716 | 18.89° C | 74% | 1012.3 hPa | 0 mm | - | 40 W/m² | - |
| 1787893889 | 18.33° C | 74% | 1012.5 hPa | 0 mm | - | 20 W/m² | - |
| 1787893516 | 18.33° C | 75% | 1012.4 hPa | 0 mm | - | 7 W/m² | - |
| 1787892916 | 18.33° C | 75% | 1012.4 hPa | 0 mm | - | 7 W/m² | - |
| 1787892088 | 18.33° C | 75% | 1012.3 hPa | 0 mm | - | 0 W/m² | - |
| 1787891715 | 18.89° C | 74% | 1012.1 hPa | 0 mm | - | 0 W/m² | - |
| 1787891116 | 18.89° C | 74% | 1012.4 hPa | 0 mm | - | 0 W/m² | - |
| 1787890289 | 19.44° C | 72% | 1012.1 hPa | 0 mm | - | 0 W/m² | - |
| 1787889916 | 18.89° C | 74% | 1012.3 hPa | 0 mm | - | 0 W/m² | - |
| 1787889316 | 18.89° C | 75% | 1012.4 hPa | 0 mm | - | 0 W/m² | - |
| 1787888715 | 18.89° C | 73% | 1012.3 hPa | 0 mm | - | 0 W/m² | - |
| 1787888115 | 18.89° C | 75% | 1012.4 hPa | 0 mm | - | 0 W/m² | - |
| 1787887515 | 19.44° C | 72% | 1012.3 hPa | 0 mm | - | 0 W/m² | - |
| 1787886687 | 19.44° C | 71% | 1012.2 hPa | 0 mm | - | 0 W/m² | - |
| 1787886314 | 19.44° C | 72% | 1012.3 hPa | 0 mm | - | 0 W/m² | - |
| 1787885716 | 20° C | 70% | 1012.2 hPa | 0 mm | - | 0 W/m² | - |
| 1787884889 | 20° C | 70% | 1012.1 hPa | 0 mm | - | 0 W/m² | - |
| 1787884516 | 19.44° C | 71% | 1012.3 hPa | 0 mm | - | 0 W/m² | - |
* Rain latest hour (hover to see other rain measurements)
** Current wind speed in m/s (hover to see current wind gust speed)